createdAt,value
2018-12-08T06:03:11.956Z,2.70
2018-12-08T06:05:40.650Z,2.90
2018-12-08T06:08:09.692Z,3.20
2018-12-08T06:10:38.408Z,2.47
2018-12-08T06:13:07.495Z,2.33
2018-12-08T06:15:36.334Z,2.77
2018-12-08T06:18:05.515Z,4.00
2018-12-08T06:20:34.685Z,3.37
2018-12-08T06:23:04.029Z,2.87
2018-12-08T06:25:34.257Z,3.43
2018-12-08T06:28:20.751Z,3.23
2018-12-08T06:30:49.913Z,3.03
2018-12-08T06:33:19.186Z,2.37
2018-12-08T06:35:48.064Z,3.70
2018-12-08T06:38:16.871Z,4.17
2018-12-08T06:40:46.334Z,3.40
2018-12-08T06:43:15.624Z,3.37
2018-12-08T06:45:45.053Z,2.87
2018-12-08T06:48:13.763Z,3.60
2018-12-08T06:50:42.890Z,7.77
2018-12-08T06:53:11.316Z,14.33
2018-12-08T06:55:40.432Z,5.10
2018-12-08T06:58:09.982Z,3.43
2018-12-08T07:00:39.395Z,3.93
2018-12-08T07:03:08.470Z,3.80
2018-12-08T07:05:37.484Z,3.37
2018-12-08T07:08:06.479Z,3.30
2018-12-08T07:10:35.515Z,3.70
2018-12-08T07:13:04.549Z,3.87
2018-12-08T07:15:33.956Z,3.87
2018-12-08T07:18:03.003Z,2.90
2018-12-08T07:20:32.207Z,2.30
2018-12-08T07:23:01.878Z,3.80
2018-12-08T07:25:30.899Z,2.97
2018-12-08T07:28:00.089Z,3.63
2018-12-08T07:30:28.945Z,2.83
2018-12-08T07:32:57.939Z,3.23
2018-12-08T07:35:27.101Z,2.93
2018-12-08T07:37:56.137Z,3.70
2018-12-08T07:40:25.647Z,4.40
2018-12-08T07:42:54.901Z,4.23
2018-12-08T07:45:24.018Z,3.87
2018-12-08T07:47:53.409Z,3.80
2018-12-08T07:50:22.518Z,3.33
2018-12-08T07:52:51.692Z,3.10
2018-12-08T07:55:20.725Z,3.13
2018-12-08T07:57:49.522Z,2.87
2018-12-08T08:00:19.164Z,3.63
2018-12-08T08:02:48.600Z,3.17
2018-12-08T08:05:17.728Z,3.70
2018-12-08T08:07:47.186Z,3.40
2018-12-08T08:10:16.267Z,2.87
2018-12-08T08:12:45.373Z,2.83
2018-12-08T08:15:14.568Z,2.90
2018-12-08T08:17:43.837Z,3.20
2018-12-08T08:20:13.253Z,3.70
2018-12-08T08:22:42.703Z,3.47
2018-12-08T08:25:12.184Z,2.83
2018-12-08T08:27:40.887Z,3.50
2018-12-08T08:30:11.594Z,4.23
2018-12-08T08:32:40.606Z,3.03
2018-12-08T08:35:09.416Z,3.43
2018-12-08T08:37:40.615Z,2.93
2018-12-08T08:40:11.368Z,3.83
2018-12-08T08:42:40.902Z,5.00
2018-12-08T08:45:10.065Z,3.20
2018-12-08T08:47:39.889Z,3.70
2018-12-08T08:50:10.975Z,3.37
2018-12-08T08:52:40.409Z,3.27
2018-12-08T08:55:09.537Z,3.47
2018-12-08T08:57:39.228Z,3.80
2018-12-08T09:00:10.496Z,3.87
2018-12-08T09:02:39.724Z,3.60
2018-12-08T09:05:09.317Z,4.07
2018-12-08T09:07:38.758Z,3.87
2018-12-08T09:10:11.177Z,3.83
2018-12-08T09:12:39.911Z,3.17
2018-12-08T09:15:09.231Z,3.83
2018-12-08T09:17:38.681Z,3.27
2018-12-08T09:20:10.019Z,2.57
2018-12-08T09:22:39.789Z,3.27
2018-12-08T09:25:09.740Z,2.90
2018-12-08T09:27:38.711Z,2.47
2018-12-08T09:30:10.020Z,3.90
2018-12-08T09:32:39.767Z,3.10
2018-12-08T09:35:11.275Z,3.80
2018-12-08T09:37:40.980Z,3.30
2018-12-08T09:40:10.661Z,4.00
2018-12-08T09:42:39.359Z,3.67
2018-12-08T09:45:08.646Z,3.07
2018-12-08T09:47:37.771Z,4.40
2018-12-08T09:50:08.559Z,4.93
2018-12-08T09:52:37.673Z,3.03
2018-12-08T09:55:06.691Z,4.17
2018-12-08T09:57:35.737Z,3.67
2018-12-08T10:00:05.232Z,3.00
2018-12-08T10:02:35.452Z,3.50
2018-12-08T10:05:04.541Z,3.00
2018-12-08T10:07:33.815Z,3.57
2018-12-08T10:10:03.298Z,3.30
2018-12-08T10:12:32.470Z,4.20
2018-12-08T10:15:03.254Z,3.20
2018-12-08T10:17:35.244Z,3.47
2018-12-08T10:20:04.289Z,2.87
2018-12-08T10:22:33.707Z,3.40
2018-12-08T10:25:03.008Z,3.90
2018-12-08T10:27:31.737Z,3.17
2018-12-08T10:30:00.854Z,3.53
2018-12-08T10:32:30.168Z,3.07
2018-12-08T10:34:59.293Z,3.70
2018-12-08T10:37:28.737Z,3.00
2018-12-08T10:39:57.761Z,3.73
2018-12-08T10:42:27.913Z,3.70
2018-12-08T10:44:57.140Z,3.20
2018-12-08T10:47:27.380Z,2.83
2018-12-08T10:49:56.824Z,3.30
2018-12-08T10:52:26.351Z,4.00
2018-12-08T10:54:56.170Z,2.97
2018-12-08T10:57:24.912Z,2.93
2018-12-08T10:59:53.935Z,3.20
2018-12-08T11:02:28.088Z,3.13
2018-12-08T11:04:57.179Z,2.93
2018-12-08T11:07:25.889Z,3.17
2018-12-08T11:09:55.013Z,2.33
2018-12-08T11:12:24.067Z,3.07
2018-12-08T11:15:00.489Z,2.33
2018-12-08T11:17:23.812Z,3.10
2018-12-08T11:19:52.987Z,2.90
2018-12-08T11:22:21.773Z,2.50
2018-12-08T11:24:50.841Z,2.73
2018-12-08T11:27:20.083Z,3.30
2018-12-08T11:29:49.541Z,3.00
2018-12-08T11:32:18.741Z,3.10
2018-12-08T11:34:48.148Z,3.00
2018-12-08T11:37:24.303Z,2.97
2018-12-08T11:39:53.725Z,2.90
2018-12-08T11:42:22.122Z,2.57
2018-12-08T11:44:51.334Z,2.23
2018-12-08T11:47:20.396Z,3.33
2018-12-08T11:49:49.402Z,2.17
2018-12-08T11:52:18.154Z,2.70
2018-12-08T11:54:47.169Z,2.37
2018-12-08T11:57:16.645Z,2.30
2018-12-08T11:59:45.936Z,2.63
2018-12-08T12:02:16.596Z,2.70
2018-12-08T12:04:46.011Z,2.60
2018-12-08T12:07:15.887Z,2.70
2018-12-08T12:09:44.619Z,2.53
2018-12-08T12:12:14.773Z,2.30
2018-12-08T12:14:48.964Z,2.43
2018-12-08T12:17:18.407Z,2.57
2018-12-08T12:19:47.132Z,2.30
2018-12-08T12:22:15.897Z,2.93
2018-12-08T12:24:44.608Z,2.53
2018-12-08T12:27:14.212Z,2.83
2018-12-08T12:29:43.240Z,2.73
2018-12-08T12:32:12.364Z,2.63
2018-12-08T12:34:42.475Z,2.53
2018-12-08T12:37:12.225Z,2.17
2018-12-08T12:39:43.043Z,2.50
2018-12-08T12:42:11.786Z,2.10
2018-12-08T12:44:40.497Z,2.80
2018-12-08T12:47:09.488Z,3.10
2018-12-08T12:49:39.671Z,2.57
2018-12-08T12:52:08.755Z,2.23
2018-12-08T12:54:37.873Z,2.23
2018-12-08T12:57:07.578Z,2.70
2018-12-08T12:59:37.094Z,2.60
2018-12-08T13:02:06.874Z,2.27
2018-12-08T13:04:36.425Z,2.10
2018-12-08T13:07:05.981Z,2.57
2018-12-08T13:09:35.209Z,2.10
2018-12-08T13:12:04.704Z,2.10
2018-12-08T13:14:34.986Z,2.57
2018-12-08T13:17:04.776Z,2.03
2018-12-08T13:19:33.773Z,1.60
2018-12-08T13:22:02.515Z,1.73
2018-12-08T13:24:32.997Z,2.67
2018-12-08T13:27:01.415Z,1.60
2018-12-08T13:29:30.702Z,2.60
2018-12-08T13:32:00.819Z,2.80
2018-12-08T13:34:31.832Z,2.53
2018-12-08T13:37:01.471Z,2.50
2018-12-08T13:39:30.336Z,2.47
2018-12-08T13:42:00.834Z,2.43
2018-12-08T13:44:37.375Z,2.43
2018-12-08T13:47:06.208Z,2.17
2018-12-08T13:49:35.889Z,2.30
2018-12-08T13:52:03.616Z,3.07
2018-12-08T13:54:49.539Z,2.30
2018-12-08T13:57:18.319Z,3.03
2018-12-08T13:59:55.302Z,2.97
2018-12-08T14:02:24.619Z,3.20
2018-12-08T14:04:53.767Z,3.37
2018-12-08T14:07:23.324Z,2.43
2018-12-08T14:09:52.057Z,2.87
2018-12-08T14:12:21.875Z,3.73
2018-12-08T14:14:51.294Z,3.00
2018-12-08T14:17:20.025Z,3.83
2018-12-08T14:19:49.082Z,2.77
2018-12-08T14:22:18.247Z,2.60
2018-12-08T14:24:47.739Z,3.30
2018-12-08T14:27:17.191Z,3.77
2018-12-08T14:29:45.871Z,3.17
2018-12-08T14:32:16.028Z,4.57
2018-12-08T14:34:45.264Z,4.00
2018-12-08T14:37:14.435Z,4.07
2018-12-08T14:39:43.476Z,3.93
2018-12-08T14:42:12.735Z,3.17
2018-12-08T14:44:42.512Z,2.73
2018-12-08T14:47:11.380Z,2.43
2018-12-08T14:49:40.098Z,3.90
2018-12-08T14:52:08.873Z,4.77
2018-12-08T14:54:38.515Z,3.53
2018-12-08T14:57:07.972Z,5.50
2018-12-08T14:59:37.050Z,4.53
2018-12-08T15:02:05.934Z,4.40
2018-12-08T15:04:36.619Z,3.40
2018-12-08T15:07:05.727Z,4.00
2018-12-08T15:09:34.449Z,3.40
2018-12-08T15:12:03.965Z,4.57
2018-12-08T15:14:33.196Z,2.97
2018-12-08T15:17:01.897Z,3.30
2018-12-08T15:19:31.092Z,4.43
2018-12-08T15:22:00.545Z,4.30
2018-12-08T15:24:29.284Z,3.03
2018-12-08T15:26:59.036Z,3.70
2018-12-08T15:29:28.437Z,3.33
2018-12-08T15:31:58.463Z,3.67
2018-12-08T15:34:27.575Z,3.40
2018-12-08T15:36:56.284Z,3.63
2018-12-08T15:39:25.005Z,3.27
2018-12-08T15:41:53.937Z,2.90
2018-12-08T15:44:22.764Z,3.17
2018-12-08T15:46:51.836Z,2.50
2018-12-08T15:49:20.888Z,2.83
2018-12-08T15:51:49.925Z,3.13
2018-12-08T15:54:18.644Z,3.23
2018-12-08T15:56:47.843Z,2.80
2018-12-08T15:59:17.432Z,3.67
2018-12-08T16:01:46.857Z,3.23
2018-12-08T16:04:16.886Z,3.00
2018-12-08T16:06:45.655Z,4.13
2018-12-08T16:09:14.383Z,2.73
2018-12-08T16:11:43.811Z,4.33
2018-12-08T16:14:12.513Z,2.73
2018-12-08T16:16:42.567Z,3.90
2018-12-08T16:19:11.719Z,3.73
2018-12-08T16:21:41.153Z,3.43
2018-12-08T16:24:10.735Z,2.80
2018-12-08T16:26:40.473Z,2.43
2018-12-08T16:29:12.906Z,2.43
2018-12-08T16:31:41.737Z,4.00
2018-12-08T16:34:10.444Z,3.37
2018-12-08T16:36:39.170Z,4.17
2018-12-08T16:39:10.277Z,4.87
2018-12-08T16:41:39.413Z,2.67
2018-12-08T16:44:08.488Z,3.27
2018-12-08T16:46:37.721Z,3.00
2018-12-08T16:49:06.435Z,3.77
2018-12-08T16:51:35.460Z,3.77
2018-12-08T16:54:04.726Z,2.70
2018-12-08T16:56:34.105Z,3.63
2018-12-08T16:59:03.471Z,3.23
2018-12-08T17:01:32.407Z,2.03
2018-12-08T17:04:01.187Z,3.53
2018-12-08T17:06:30.348Z,2.63
2018-12-08T17:08:59.074Z,3.73
2018-12-08T17:11:28.537Z,3.43
2018-12-08T17:13:57.544Z,3.00
2018-12-08T17:16:26.627Z,3.47
2018-12-08T17:18:55.333Z,3.30
2018-12-08T17:21:24.928Z,3.93
2018-12-08T17:23:54.353Z,4.30
2018-12-08T17:26:23.384Z,4.03
2018-12-08T17:28:52.412Z,4.30
2018-12-08T17:31:21.427Z,3.43
2018-12-08T17:33:50.620Z,4.80
2018-12-08T17:36:19.711Z,3.13
2018-12-08T17:38:48.707Z,3.00
2018-12-08T17:41:18.668Z,4.17
2018-12-08T17:43:48.328Z,3.13
2018-12-08T17:46:17.041Z,6.93
2018-12-08T17:48:46.577Z,14.73
2018-12-08T17:51:16.163Z,9.17
2018-12-08T17:53:47.143Z,3.70
2018-12-08T17:56:16.144Z,3.17
2018-12-08T17:58:45.695Z,4.90
2018-12-08T18:01:14.785Z,3.87
2018-12-08T18:03:44.239Z,10.23
2018-12-08T18:06:13.431Z,4.43
2018-12-08T18:08:42.872Z,4.30
2018-12-08T18:11:12.356Z,3.37
2018-12-08T18:13:41.488Z,4.67
2018-12-08T18:16:10.558Z,4.20
2018-12-08T18:18:39.672Z,6.47
2018-12-08T18:21:09.746Z,10.60
2018-12-08T18:23:38.900Z,9.17
2018-12-08T18:26:07.624Z,13.97
2018-12-08T18:28:36.763Z,15.23
2018-12-08T18:31:06.339Z,19.60
2018-12-08T18:33:36.434Z,15.33
2018-12-08T18:36:05.848Z,15.20
2018-12-08T18:38:34.580Z,7.73
2018-12-08T18:41:03.281Z,5.27
2018-12-08T18:43:32.844Z,16.93
2018-12-08T18:46:02.659Z,29.53
2018-12-08T18:48:31.487Z,51.57
2018-12-08T18:51:00.237Z,46.33
2018-12-08T18:53:29.006Z,51.57
2018-12-08T18:55:58.152Z,37.30
2018-12-08T18:58:29.884Z,38.23
2018-12-08T19:00:59.052Z,19.20
2018-12-08T19:03:28.176Z,56.17
2018-12-08T19:05:58.095Z,39.17
2018-12-08T19:08:27.631Z,33.43
2018-12-08T19:10:56.553Z,46.60
2018-12-08T19:13:26.053Z,34.10
2018-12-08T19:15:58.380Z,73.53
2018-12-08T19:18:27.556Z,70.90
2018-12-08T19:20:56.253Z,26.87
2018-12-08T19:23:25.189Z,55.53
2018-12-08T19:25:55.345Z,50.90
2018-12-08T19:28:24.468Z,50.77
2018-12-08T19:30:53.561Z,54.77
2018-12-08T19:33:23.210Z,42.10
2018-12-08T19:35:53.168Z,7.13
2018-12-08T19:38:22.204Z,8.77
2018-12-08T19:40:51.385Z,14.13
2018-12-08T19:43:25.019Z,16.83
2018-12-08T19:45:56.159Z,42.30
2018-12-08T19:48:25.676Z,44.90
2018-12-08T19:50:54.723Z,42.43
2018-12-08T19:53:23.882Z,48.73
2018-12-08T19:55:53.087Z,52.10
2018-12-08T19:58:22.608Z,56.47
2018-12-08T20:00:52.042Z,38.80
2018-12-08T20:03:20.936Z,36.83
2018-12-08T20:05:50.185Z,20.03
2018-12-08T20:08:19.336Z,32.33
2018-12-08T20:10:48.759Z,36.47
2018-12-08T20:13:17.648Z,11.17
2018-12-08T20:15:46.697Z,17.93
2018-12-08T20:18:15.864Z,13.33
2018-12-08T20:20:45.314Z,41.50
2018-12-08T20:23:14.648Z,37.90
2018-12-08T20:25:44.652Z,30.77
2018-12-08T20:28:13.860Z,36.50
2018-12-08T20:30:43.329Z,12.10
2018-12-08T20:33:12.060Z,25.70
2018-12-08T20:35:40.779Z,25.80
2018-12-08T20:38:09.738Z,17.50
2018-12-08T20:40:39.035Z,17.23
2018-12-08T20:43:07.807Z,13.47
2018-12-08T20:45:37.330Z,17.90
2018-12-08T20:48:06.062Z,20.90
2018-12-08T20:50:35.320Z,18.90
2018-12-08T20:53:04.347Z,22.57
2018-12-08T20:55:33.853Z,11.13
2018-12-08T20:58:02.874Z,7.70
2018-12-08T21:00:31.968Z,9.43
2018-12-08T21:03:02.041Z,12.00
2018-12-08T21:05:33.375Z,7.90
2018-12-08T21:08:02.696Z,12.47
2018-12-08T21:10:32.192Z,8.03
2018-12-08T21:13:01.305Z,17.60
2018-12-08T21:15:30.058Z,9.43
2018-12-08T21:17:59.303Z,4.07
2018-12-08T21:20:28.327Z,4.73
2018-12-08T21:22:57.659Z,7.13
2018-12-08T21:25:27.191Z,3.13
2018-12-08T21:27:56.451Z,5.87
2018-12-08T21:30:27.788Z,8.07
2018-12-08T21:32:56.940Z,7.50
2018-12-08T21:35:26.039Z,8.13
2018-12-08T21:37:55.492Z,6.93
2018-12-08T21:40:27.542Z,6.63
2018-12-08T21:42:56.370Z,8.33
2018-12-08T21:45:26.087Z,10.33
2018-12-08T21:47:55.087Z,8.50
2018-12-08T21:50:24.950Z,7.20
2018-12-08T21:52:54.013Z,8.73
2018-12-08T21:55:23.119Z,7.43
